Time;durP1;ratioP1;P1;durP2;ratioP2;P2;SDS_P1;SDS_P2;PMS_P1;PMS_P2;Temp;Humidity;BMP_temperature;BMP_pressure;BME280_temperature;BME280_humidity;BME280_pressure;Samples;Min_cycle;Max_cycle;Signal;HPM_P1;HPM_P2
2021/08/01 00:00:26;;;;;;;7.72;5.72;;;;;;;18.31;60.25;98263.13;3587647;40;20052;-68
2021/08/01 00:02:56;;;;;;;8.48;4.28;;;;;;;18.32;60.35;98264.75;3588856;40;20063;-68
2021/08/01 00:05:24;;;;;;;6.05;4.32;;;;;;;18.24;60.02;98270.56;3587665;40;20048;-68
2021/08/01 00:07:52;;;;;;;7.32;4.90;;;;;;;18.17;60.33;98258.47;3587967;40;20048;-70
2021/08/01 00:10:20;;;;;;;6.75;4.20;;;;;;;18.12;60.61;98253.88;3588457;40;20358;-68
2021/08/01 00:12:48;;;;;;;4.35;3.60;;;;;;;18.15;60.68;98256.03;3588847;40;20329;-68
2021/08/01 00:15:17;;;;;;;8.60;4.82;;;;;;;18.20;60.61;98250.72;3589907;40;20080;-68
2021/08/01 00:17:45;;;;;;;6.65;5.35;;;;;;;18.23;60.88;98247.56;3590453;40;20056;-68
2021/08/01 00:20:13;;;;;;;6.15;5.05;;;;;;;18.21;60.39;98240.88;3587343;40;20063;-68
2021/08/01 00:22:40;;;;;;;8.10;4.72;;;;;;;18.13;60.85;98246.69;3588408;40;20069;-69
2021/08/01 00:25:09;;;;;;;4.18;3.78;;;;;;;18.03;60.93;98248.19;3588245;40;20032;-68
2021/08/01 00:27:37;;;;;;;6.18;3.90;;;;;;;17.95;61.57;98245.97;3589249;40;20044;-68
2021/08/01 00:30:08;;;;;;;5.95;3.90;;;;;;;17.89;62.02;98244.31;3588315;40;20063;-68
2021/08/01 00:32:37;;;;;;;4.88;4.18;;;;;;;17.85;61.62;98237.88;3587573;40;20406;-68
2021/08/01 00:35:07;;;;;;;7.82;4.40;;;;;;;17.83;62.18;98243.44;3588400;40;20048;-68
2021/08/01 00:37:35;;;;;;;6.00;4.53;;;;;;;17.81;62.04;98236.75;3588235;40;20040;-68
2021/08/01 00:40:04;;;;;;;4.82;4.30;;;;;;;17.82;62.30;98239.19;3587578;40;20056;-69
2021/08/01 00:42:32;;;;;;;8.40;4.35;;;;;;;17.87;62.65;98226.91;3588146;40;20510;-68
2021/08/01 00:45:00;;;;;;;8.18;4.45;;;;;;;17.90;62.61;98221.88;3644561;22;20034;-71
2021/08/01 00:47:28;;;;;;;5.03;3.75;;;;;;;17.98;62.51;98228.63;3592221;40;20036;-72
2021/08/01 00:50:05;;;;;;;5.57;4.13;;;;;;;18.06;62.41;98228.16;3591477;40;20130;-73
2021/08/01 00:52:34;;;;;;;6.32;4.28;;;;;;;18.06;61.90;98245.00;3593437;40;20033;-73
2021/08/01 00:55:04;;;;;;;8.43;4.28;;;;;;;18.08;61.83;98239.38;3592618;40;20033;-71
2021/08/01 00:57:32;;;;;;;5.57;4.20;;;;;;;18.12;61.50;98248.53;3580501;40;20108;-71
2021/08/01 01:00:01;;;;;;;6.60;4.28;;;;;;;18.07;61.25;98243.13;3580503;40;20360;-71
2021/08/01 01:02:35;;;;;;;6.80;4.38;;;;;;;18.10;61.21;98241.84;3580489;40;20142;-72
2021/08/01 01:05:15;;;;;;;7.40;4.03;;;;;;;18.10;61.56;98223.91;3571011;40;20362;-73
2021/08/01 01:07:52;;;;;;;8.10;4.75;;;;;;;18.05;61.21;98232.69;3570990;40;20097;-73
2021/08/01 01:10:45;;;;;;;22.80;15.25;;;;;;;17.87;61.58;98237.59;3572077;40;20053;-72
2021/08/01 01:13:28;;;;;;;8.38;6.18;;;;;;;17.72;62.72;98241.72;3562256;40;20049;-71
2021/08/01 01:16:00;;;;;;;13.10;8.23;;;;;;;17.71;62.50;98228.59;3563695;40;20053;-72
2021/08/01 01:18:31;;;;;;;7.45;5.85;;;;;;;17.46;63.45;98237.16;3572027;40;20041;-72
2021/08/01 01:21:16;;;;;;;5.30;4.72;;;;;;;17.42;63.69;98236.84;3572484;40;20045;-71
2021/08/01 01:23:47;;;;;;;7.40;3.92;;;;;;;17.48;64.02;98238.53;3563889;40;20521;-70
2021/08/01 01:26:32;;;;;;;9.02;4.78;;;;;;;17.51;63.70;98232.69;3572379;40;20038;-72
2021/08/01 01:29:19;;;;;;;4.63;4.20;;;;;;;17.56;63.81;98234.63;3564210;40;20346;-71
2021/08/01 01:32:04;;;;;;;5.32;4.60;;;;;;;17.44;64.10;98240.09;3571633;40;20095;-71
2021/08/01 01:34:44;;;;;;;5.85;3.95;;;;;;;17.44;64.40;98247.31;3579848;40;20041;-71
2021/08/01 01:37:18;;;;;;;5.63;4.35;;;;;;;17.44;64.32;98242.78;3582534;40;20059;-73
2021/08/01 01:39:49;;;;;;;5.13;3.65;;;;;;;17.51;64.34;98240.72;3571656;40;20057;-73
2021/08/01 01:42:37;;;;;;;5.25;4.10;;;;;;;17.58;64.04;98238.63;3561765;40;20295;-73
2021/08/01 01:45:08;;;;;;;5.18;3.67;;;;;;;17.64;63.98;98239.50;3552288;40;20038;-72
2021/08/01 01:47:38;;;;;;;6.38;4.28;;;;;;;17.60;63.77;98240.28;3554112;40;20058;-71
2021/08/01 01:50:08;;;;;;;5.15;3.78;;;;;;;17.54;64.09;98236.72;3561470;40;20070;-73
2021/08/01 01:52:37;;;;;;;6.60;4.65;;;;;;;17.37;64.31;98230.66;3562323;40;20053;-72
2021/08/01 01:55:10;;;;;;;5.53;4.18;;;;;;;17.27;64.76;98234.84;3562600;40;20046;-72
2021/08/01 01:57:43;;;;;;;5.30;4.20;;;;;;;17.28;64.82;98240.97;3562016;40;20528;-73
2021/08/01 02:00:13;;;;;;;8.88;4.28;;;;;;;17.32;65.13;98248.25;3562197;40;20108;-73
2021/08/01 02:02:44;;;;;;;4.57;3.90;;;;;;;17.28;65.00;98257.00;3562607;40;20041;-73
2021/08/01 02:05:35;;;;;;;5.03;4.28;;;;;;;17.30;64.80;98255.69;3552621;40;20038;-72
2021/08/01 02:08:48;;;;;;;12.90;4.63;;;;;;;17.34;65.25;98250.66;3532336;40;20055;-69
2021/08/01 02:11:49;;;;;;;6.97;4.25;;;;;;;17.18;65.27;98248.84;3562185;40;20148;-70
2021/08/01 02:14:42;;;;;;;6.68;4.22;;;;;;;17.08;65.53;98250.34;3570715;40;20048;-70
2021/08/01 02:17:14;;;;;;;5.80;4.72;;;;;;;17.08;66.10;98234.34;3580830;40;20060;-71
2021/08/01 02:19:45;;;;;;;5.63;4.10;;;;;;;17.08;65.89;98244.22;3582062;40;20060;-72
2021/08/01 02:22:16;;;;;;;5.25;4.22;;;;;;;17.02;66.03;98248.69;3572926;40;20057;-74
2021/08/01 02:24:49;;;;;;;7.43;4.45;;;;;;;16.99;66.33;98248.38;3581715;40;20029;-72
2021/08/01 02:27:19;;;;;;;5.40;4.53;;;;;;;16.99;66.42;98245.72;3573743;40;20064;-71
2021/08/01 02:29:50;;;;;;;4.70;4.15;;;;;;;16.99;66.18;98241.16;3574015;40;20430;-71
2021/08/01 02:32:20;;;;;;;7.03;4.32;;;;;;;16.91;66.56;98238.13;3573405;40;20119;-73
2021/08/01 02:34:49;;;;;;;5.88;4.47;;;;;;;16.97;66.18;98234.44;3574258;40;20044;-72
2021/08/01 02:37:20;;;;;;;4.93;4.43;;;;;;;17.02;66.15;98229.16;3574142;40;20025;-72
2021/08/01 02:39:50;;;;;;;5.78;4.43;;;;;;;16.99;66.27;98235.81;3582609;40;20083;-72
2021/08/01 02:42:19;;;;;;;7.28;4.10;;;;;;;16.98;66.82;98236.06;3582368;40;20025;-72
2021/08/01 02:44:47;;;;;;;5.35;4.55;;;;;;;17.01;66.16;98247.06;3583083;40;20069;-72
2021/08/01 02:47:18;;;;;;;5.95;4.47;;;;;;;17.06;66.09;98244.47;3583506;40;20037;-72
2021/08/01 02:49:47;;;;;;;5.75;4.57;;;;;;;17.03;66.40;98244.16;3593407;40;20028;-72
2021/08/01 02:52:21;;;;;;;6.13;4.30;;;;;;;16.95;66.46;98233.91;3594274;40;20057;-72
2021/08/01 02:54:51;;;;;;;7.75;5.00;;;;;;;16.88;66.61;98225.25;3593302;40;20040;-71
2021/08/01 02:57:25;;;;;;;5.70;4.35;;;;;;;16.90;66.51;98223.97;3592577;40;20045;-71
2021/08/01 02:59:54;;;;;;;6.78;4.57;;;;;;;16.84;66.64;98231.09;3592905;40;20044;-71
2021/08/01 03:02:23;;;;;;;6.90;4.18;;;;;;;16.84;66.84;98235.63;3593597;40;20028;-71
2021/08/01 03:04:56;;;;;;;6.47;4.85;;;;;;;16.86;66.90;98233.53;3593474;40;20383;-71
2021/08/01 03:07:25;;;;;;;6.68;4.30;;;;;;;16.92;67.17;98227.19;3592413;40;20102;-71
2021/08/01 03:09:55;;;;;;;6.05;4.70;;;;;;;16.96;66.47;98228.31;3589932;40;20048;-71
2021/08/01 03:12:23;;;;;;;5.10;4.40;;;;;;;16.97;66.39;98231.78;3593189;40;20337;-72
2021/08/01 03:14:51;;;;;;;9.95;4.78;;;;;;;16.97;66.39;98235.25;3593861;40;20032;-72
2021/08/01 03:17:19;;;;;;;5.20;4.40;;;;;;;16.97;66.93;98239.78;3593255;40;20035;-72
2021/08/01 03:19:48;;;;;;;5.55;4.50;;;;;;;16.95;66.53;98228.56;3592716;40;20044;-71
2021/08/01 03:22:16;;;;;;;7.28;5.03;;;;;;;16.55;67.36;98226.91;3592944;40;20029;-71
2021/08/01 03:24:43;;;;;;;7.28;5.20;;;;;;;16.47;67.50;98240.69;3593801;40;20020;-72
2021/08/01 03:27:17;;;;;;;5.13;4.63;;;;;;;16.45;68.03;98237.44;3594075;40;20110;-71
2021/08/01 03:29:45;;;;;;;6.47;4.88;;;;;;;16.49;67.67;98234.06;3572151;40;20042;-73
2021/08/01 03:32:16;;;;;;;8.30;5.32;;;;;;;16.56;68.02;98239.19;3572192;40;20077;-73
2021/08/01 03:34:46;;;;;;;7.85;4.60;;;;;;;16.56;68.00;98244.53;3571783;40;20030;-73
2021/08/01 03:37:14;;;;;;;5.70;4.97;;;;;;;16.58;68.09;98245.13;3564229;40;20090;-73
2021/08/01 03:40:01;;;;;;;6.38;4.45;;;;;;;16.65;67.67;98250.25;3572311;40;20441;-73
2021/08/01 03:42:30;;;;;;;5.22;4.45;;;;;;;16.65;67.34;98242.25;3571240;40;20427;-72
2021/08/01 03:44:58;;;;;;;5.18;4.53;;;;;;;16.60;67.93;98229.66;3569995;40;20028;-73
2021/08/01 03:47:26;;;;;;;7.05;5.25;;;;;;;16.58;67.79;98239.78;3570130;40;20116;-73
2021/08/01 03:49:53;;;;;;;5.65;4.43;;;;;;;16.46;68.17;98231.88;3570218;40;20379;-73
2021/08/01 03:52:21;;;;;;;6.75;4.82;;;;;;;16.55;68.35;98235.72;3569762;40;20041;-73
2021/08/01 03:54:49;;;;;;;6.55;4.78;;;;;;;16.65;68.20;98253.72;3569705;40;20033;-73
2021/08/01 03:57:16;;;;;;;6.00;4.93;;;;;;;16.68;68.17;98250.59;3570918;40;20029;-71
2021/08/01 03:59:46;;;;;;;7.28;4.82;;;;;;;16.68;68.10;98247.91;3575078;40;20041;-71
2021/08/01 04:02:14;;;;;;;8.10;5.05;;;;;;;16.67;67.63;98242.84;3595877;40;20055;-71
2021/08/01 04:04:41;;;;;;;6.97;4.45;;;;;;;16.61;67.84;98244.59;3596765;40;20097;-71
2021/08/01 04:07:09;;;;;;;9.00;5.10;;;;;;;16.59;68.05;98255.53;3596952;40;20040;-71
2021/08/01 04:09:37;;;;;;;8.40;5.53;;;;;;;16.65;67.93;98252.94;3594995;40;20035;-71
2021/08/01 04:12:06;;;;;;;8.43;5.30;;;;;;;16.64;67.84;98249.47;3595877;40;20052;-71
2021/08/01 04:14:33;;;;;;;5.30;4.45;;;;;;;16.58;68.32;98250.44;3594737;40;20044;-71
2021/08/01 04:17:03;;;;;;;5.57;4.90;;;;;;;16.52;68.16;98262.88;3594077;40;20119;-70
2021/08/01 04:19:31;;;;;;;7.40;4.45;;;;;;;16.47;68.75;98260.16;3593531;40;20048;-71
2021/08/01 04:21:58;;;;;;;5.47;4.82;;;;;;;16.49;68.62;98254.56;3593597;40;20045;-70
2021/08/01 04:24:26;;;;;;;6.82;5.38;;;;;;;16.48;68.32;98255.63;3592430;40;20052;-70
2021/08/01 04:26:55;;;;;;;7.55;4.68;;;;;;;16.55;68.32;98248.25;3592953;40;20052;-71
2021/08/01 04:29:23;;;;;;;8.40;5.22;;;;;;;16.59;68.39;98246.72;3593398;40;20417;-70
2021/08/01 04:31:51;;;;;;;8.18;4.97;;;;;;;16.66;68.22;98254.56;3593880;40;20048;-71
2021/08/01 04:34:21;;;;;;;8.70;4.90;;;;;;;16.67;68.04;98251.66;3592641;40;20029;-72
2021/08/01 04:36:48;;;;;;;6.15;5.38;;;;;;;16.60;68.28;98251.81;3592614;40;20048;-72
2021/08/01 04:39:16;;;;;;;4.53;4.13;;;;;;;16.62;67.64;98254.25;3593204;40;20021;-71
2021/08/01 04:41:44;;;;;;;6.38;5.20;;;;;;;16.58;68.08;98264.59;3595060;40;20029;-71
2021/08/01 04:44:12;;;;;;;16.25;4.85;;;;;;;16.50;68.07;98262.34;3593085;40;20057;-71
2021/08/01 04:46:40;;;;;;;6.13;4.70;;;;;;;16.56;68.25;98253.34;3593960;40;20408;-71
2021/08/01 04:49:08;;;;;;;8.05;5.10;;;;;;;16.53;67.95;98261.03;3594503;40;20052;-70
2021/08/01 04:51:37;;;;;;;7.25;5.00;;;;;;;16.60;67.89;98265.16;3594836;40;20020;-70
2021/08/01 04:54:04;;;;;;;8.63;5.15;;;;;;;16.58;68.10;98251.25;3595407;40;20052;-71
2021/08/01 04:56:32;;;;;;;6.65;5.20;;;;;;;16.62;68.03;98253.44;3594635;40;20045;-72
2021/08/01 04:59:00;;;;;;;9.73;6.43;;;;;;;16.67;68.02;98258.84;3595040;40;20106;-73
2021/08/01 05:01:28;;;;;;;6.20;5.30;;;;;;;16.67;67.57;98264.97;3594993;40;20051;-72
2021/08/01 05:03:56;;;;;;;7.70;5.57;;;;;;;16.62;67.47;98259.59;3594373;40;20085;-72
2021/08/01 05:06:23;;;;;;;7.50;5.90;;;;;;;16.60;67.60;98264.34;3594261;40;20415;-71
2021/08/01 05:08:52;;;;;;;9.63;5.38;;;;;;;16.64;67.75;98265.47;3595180;40;20059;-71
2021/08/01 05:11:20;;;;;;;6.93;5.75;;;;;;;16.67;68.03;98267.66;3595040;40;20058;-72
2021/08/01 05:13:48;;;;;;;7.55;5.60;;;;;;;16.66;67.75;98270.59;3594928;40;20389;-71
2021/08/01 05:16:17;;;;;;;7.05;5.15;;;;;;;16.65;67.55;98266.28;3596527;40;20080;-71
2021/08/01 05:18:45;;;;;;;6.82;5.25;;;;;;;16.69;67.64;98254.06;3595321;40;20025;-72
2021/08/01 05:21:13;;;;;;;12.50;6.18;;;;;;;16.75;67.45;98259.25;3597596;40;20048;-72
2021/08/01 05:23:41;;;;;;;6.30;5.68;;;;;;;16.75;67.48;98263.78;3598301;40;20366;-72
2021/08/01 05:26:10;;;;;;;12.65;6.63;;;;;;;16.72;67.92;98264.25;3597564;40;20102;-72
2021/08/01 05:28:38;;;;;;;11.52;9.48;;;;;;;16.76;68.13;98265.41;3596966;40;20056;-71
2021/08/01 05:31:06;;;;;;;8.85;7.20;;;;;;;16.88;67.88;98259.97;3598079;40;20105;-72
2021/08/01 05:33:33;;;;;;;8.77;6.55;;;;;;;16.95;67.64;98268.63;3598320;40;20048;-72
2021/08/01 05:36:05;;;;;;;9.10;5.72;;;;;;;17.01;66.99;98270.28;3596897;40;20056;-72
2021/08/01 05:38:33;;;;;;;7.30;5.43;;;;;;;17.01;67.23;98273.75;3597168;40;20055;-72
2021/08/01 05:41:01;;;;;;;7.60;5.63;;;;;;;17.05;67.44;98279.41;3599010;40;20043;-73
2021/08/01 05:43:30;;;;;;;7.07;5.72;;;;;;;17.11;66.69;98275.78;3599836;40;20041;-72
2021/08/01 05:45:58;;;;;;;10.45;6.15;;;;;;;17.13;66.74;98276.31;3599677;40;20044;-72
2021/08/01 05:48:26;;;;;;;7.38;5.00;;;;;;;17.22;66.67;98274.81;3599089;40;20052;-72
2021/08/01 05:50:53;;;;;;;6.60;5.82;;;;;;;17.30;66.93;98268.25;3599138;40;20040;-72
2021/08/01 05:53:21;;;;;;;8.30;6.05;;;;;;;17.32;66.33;98266.13;3599422;40;20048;-72
2021/08/01 05:55:49;;;;;;;7.93;5.57;;;;;;;17.29;66.19;98267.44;3598444;40;20025;-72
2021/08/01 05:58:17;;;;;;;6.65;5.30;;;;;;;17.26;66.63;98275.94;3599351;40;20102;-72
2021/08/01 06:00:46;;;;;;;9.40;5.78;;;;;;;17.35;66.44;98271.00;3601045;40;20043;-72
2021/08/01 06:03:14;;;;;;;8.43;5.30;;;;;;;17.39;66.46;98274.78;3602754;40;20040;-73
2021/08/01 06:05:42;;;;;;;5.20;4.70;;;;;;;17.44;66.38;98269.50;3602201;40;20101;-73
2021/08/01 06:08:09;;;;;;;8.98;5.57;;;;;;;17.44;65.81;98276.69;3602695;39;20039;-73
2021/08/01 06:10:37;;;;;;;9.18;5.97;;;;;;;17.54;66.10;98277.59;3602746;39;20048;-72
2021/08/01 06:13:05;;;;;;;9.13;8.00;;;;;;;17.63;65.82;98285.19;3602333;40;20045;-73
2021/08/01 06:15:33;;;;;;;9.90;5.90;;;;;;;17.39;65.55;98282.78;3601625;40;20036;-72
2021/08/01 06:18:02;;;;;;;8.48;5.60;;;;;;;17.41;66.04;98295.91;3602719;39;20031;-72
2021/08/01 06:20:30;;;;;;;6.55;5.30;;;;;;;17.48;65.95;98286.63;3601925;40;20072;-72
2021/08/01 06:22:57;;;;;;;6.88;5.07;;;;;;;17.54;66.18;98296.31;3601944;40;20040;-73
2021/08/01 06:25:25;;;;;;;7.65;6.18;;;;;;;17.67;65.85;98296.97;3601618;40;20043;-72
2021/08/01 06:27:53;;;;;;;9.65;5.97;;;;;;;17.77;65.41;98289.13;3602071;40;20040;-72
2021/08/01 06:30:20;;;;;;;7.88;5.63;;;;;;;17.85;64.74;98294.00;3601831;39;20039;-73
2021/08/01 06:32:48;;;;;;;7.32;5.93;;;;;;;17.94;64.79;98297.84;3602225;39;20043;-73
2021/08/01 06:35:17;;;;;;;9.23;5.90;;;;;;;17.99;64.51;98289.88;3602596;40;20052;-73
2021/08/01 06:37:45;;;;;;;8.02;5.57;;;;;;;18.02;64.44;98301.94;3601664;39;20041;-72
2021/08/01 06:40:13;;;;;;;6.03;4.78;;;;;;;18.05;64.49;98304.91;3602045;39;20032;-72
2021/08/01 06:42:42;;;;;;;6.50;5.22;;;;;;;18.03;63.54;98303.53;3601814;40;20094;-73
2021/08/01 06:45:10;;;;;;;6.30;5.70;;;;;;;18.00;64.05;98310.22;3656203;22;20035;-66
2021/08/01 06:47:38;;;;;;;8.50;5.57;;;;;;;18.02;64.03;98317.97;3580271;40;20103;-67
2021/08/01 06:50:07;;;;;;;9.63;6.35;;;;;;;18.05;64.01;98318.28;3579793;40;20068;-67
2021/08/01 06:52:40;;;;;;;6.32;5.25;;;;;;;18.09;64.23;98317.78;3570843;40;20398;-67
2021/08/01 06:55:08;;;;;;;9.07;5.85;;;;;;;18.19;63.75;98309.84;3583142;40;20056;-66
2021/08/01 06:57:36;;;;;;;6.97;5.85;;;;;;;18.21;63.96;98318.44;3582996;40;20040;-67
2021/08/01 07:00:06;;;;;;;7.40;5.22;;;;;;;18.20;63.73;98316.81;3582429;40;20398;-67
2021/08/01 07:02:33;;;;;;;9.70;5.50;;;;;;;18.30;63.07;98309.69;3566115;40;20444;-67
2021/08/01 07:05:02;;;;;;;8.68;5.63;;;;;;;18.36;63.32;98317.75;3583050;40;20056;-67
2021/08/01 07:07:30;;;;;;;5.70;4.97;;;;;;;18.42;63.00;98312.19;3581939;40;20044;-68
2021/08/01 07:09:59;;;;;;;7.30;4.70;;;;;;;18.42;62.71;98320.22;3573170;40;20041;-69
2021/08/01 07:12:27;;;;;;;5.88;4.57;;;;;;;18.49;62.83;98320.81;3573582;40;20049;-70
2021/08/01 07:14:55;;;;;;;6.00;4.97;;;;;;;18.56;62.11;98325.94;3584901;40;20045;-70
2021/08/01 07:17:22;;;;;;;5.93;4.35;;;;;;;18.56;62.14;98325.94;3572659;40;20050;-70
2021/08/01 07:19:50;;;;;;;5.45;4.10;;;;;;;18.58;62.53;98325.72;3581192;40;20048;-69
2021/08/01 07:22:18;;;;;;;6.65;4.35;;;;;;;18.60;62.27;98324.38;3571294;40;20045;-70
2021/08/01 07:24:46;;;;;;;3.80;3.40;;;;;;;18.64;61.82;98324.66;3580595;40;20480;-70
2021/08/01 07:27:19;;;;;;;4.13;3.45;;;;;;;18.54;61.06;98334.25;3571877;40;20069;-69
2021/08/01 07:29:47;;;;;;;4.80;3.85;;;;;;;18.50;61.03;98330.47;3580901;40;20057;-70
2021/08/01 07:32:14;;;;;;;5.63;3.22;;;;;;;18.60;61.36;98323.56;3572952;40;20045;-70
2021/08/01 07:34:42;;;;;;;6.00;3.55;;;;;;;18.70;60.99;98324.50;3572681;40;20092;-69
2021/08/01 07:37:10;;;;;;;5.93;3.80;;;;;;;18.74;60.78;98322.13;3571120;40;20307;-69
2021/08/01 07:39:41;;;;;;;4.70;3.45;;;;;;;18.73;60.64;98325.84;3580376;40;20048;-69
2021/08/01 07:42:09;;;;;;;4.15;3.33;;;;;;;18.70;60.65;98321.00;3571702;40;20064;-70
2021/08/01 07:44:47;;;;;;;4.90;3.50;;;;;;;18.77;60.43;98308.19;3580436;40;20060;-69
2021/08/01 07:47:16;;;;;;;4.78;3.10;;;;;;;18.85;60.54;98313.06;3570252;40;20422;-69
2021/08/01 07:49:44;;;;;;;3.80;2.65;;;;;;;18.89;59.78;98314.16;3578903;40;20052;-69
2021/08/01 07:52:12;;;;;;;4.57;3.33;;;;;;;18.97;59.68;98321.72;3579019;40;20041;-70
2021/08/01 07:54:40;;;;;;;5.90;3.47;;;;;;;19.07;59.14;98309.47;3579266;40;20048;-69
2021/08/01 07:57:08;;;;;;;5.95;4.57;;;;;;;19.14;58.86;98315.38;3578991;40;20049;-69
2021/08/01 07:59:39;;;;;;;4.55;2.67;;;;;;;19.14;58.86;98323.41;3578464;40;20044;-69
2021/08/01 08:02:07;;;;;;;4.78;3.33;;;;;;;19.15;58.94;98315.13;3569561;40;20048;-69
2021/08/01 08:04:35;;;;;;;4.10;3.20;;;;;;;19.17;58.73;98323.69;3570019;40;20044;-68
2021/08/01 08:07:03;;;;;;;6.07;5.47;;;;;;;19.18;58.91;98322.63;3569593;40;20052;-68
2021/08/01 08:09:31;;;;;;;3.88;3.05;;;;;;;19.26;58.43;98324.81;3569840;40;20028;-69
2021/08/01 08:11:59;;;;;;;5.45;3.38;;;;;;;19.22;58.48;98337.13;3579331;40;20129;-69
2021/08/01 08:14:29;;;;;;;3.88;3.35;;;;;;;19.24;58.52;98334.19;3578983;40;20057;-69
2021/08/01 08:17:00;;;;;;;5.72;3.47;;;;;;;19.38;58.27;98323.81;3579018;40;20130;-69
2021/08/01 08:19:29;;;;;;;5.35;3.25;;;;;;;19.37;58.16;98330.25;3579982;40;20072;-69
2021/08/01 08:21:57;;;;;;;4.15;3.33;;;;;;;19.39;58.15;98330.78;3581675;40;20056;-68
2021/08/01 08:24:26;;;;;;;3.80;3.50;;;;;;;19.57;57.81;98327.66;3581205;40;20048;-69
2021/08/01 08:26:55;;;;;;;4.20;3.03;;;;;;;19.58;57.69;98333.81;3571385;40;20057;-69
2021/08/01 08:29:24;;;;;;;21.05;2.80;;;;;;;19.58;57.87;98326.56;3571012;40;20080;-68
2021/08/01 08:31:52;;;;;;;4.47;3.63;;;;;;;19.75;57.63;98332.56;3580293;40;20052;-69
2021/08/01 08:34:23;;;;;;;6.75;3.00;;;;;;;19.73;57.06;98336.59;3570231;40;20364;-68
2021/08/01 08:36:52;;;;;;;4.15;3.08;;;;;;;19.71;57.25;98331.47;3580207;40;20409;-68
2021/08/01 08:39:22;;;;;;;4.07;3.10;;;;;;;19.82;56.69;98335.00;3571596;40;20057;-68
2021/08/01 08:41:50;;;;;;;4.20;3.38;;;;;;;19.95;56.69;98331.00;3580005;40;20167;-68
2021/08/01 08:44:18;;;;;;;3.92;2.88;;;;;;;20.06;56.47;98338.00;3580650;40;20048;-68
2021/08/01 08:46:48;;;;;;;5.70;3.70;;;;;;;20.19;56.01;98334.00;3581220;40;20041;-69
2021/08/01 08:49:16;;;;;;;3.47;2.92;;;;;;;20.26;55.67;98342.63;3571091;40;20400;-69
2021/08/01 08:51:46;;;;;;;3.10;2.90;;;;;;;20.39;55.60;98341.28;3580159;40;20059;-68
2021/08/01 08:54:16;;;;;;;5.00;2.70;;;;;;;20.41;55.54;98339.94;3579926;40;20314;-69
2021/08/01 08:56:45;;;;;;;3.60;2.53;;;;;;;20.49;55.42;98343.97;3580023;40;20318;-69
2021/08/01 08:59:17;;;;;;;7.45;5.80;;;;;;;20.60;55.26;98345.59;3579692;40;20025;-70
2021/08/01 09:01:45;;;;;;;7.18;3.60;;;;;;;20.64;54.75;98344.00;3579918;40;20032;-69
2021/08/01 09:04:13;;;;;;;2.65;2.42;;;;;;;20.67;54.25;98346.16;3570760;40;20045;-68
2021/08/01 09:06:41;;;;;;;5.90;2.95;;;;;;;20.47;53.91;98354.16;3580619;40;20260;-69
2021/08/01 09:09:13;;;;;;;4.28;2.50;;;;;;;20.48;54.35;98353.09;3580179;40;20504;-70
2021/08/01 09:11:44;;;;;;;5.13;3.28;;;;;;;20.68;53.64;98350.44;3570502;40;20049;-69
2021/08/01 09:14:20;;;;;;;5.65;2.90;;;;;;;20.90;53.03;98349.34;3581232;40;20052;-68
2021/08/01 09:16:50;;;;;;;3.58;2.63;;;;;;;20.98;52.99;98346.94;3572414;40;20057;-68
2021/08/01 09:19:26;;;;;;;7.63;5.35;;;;;;;21.16;52.38;98348.22;3570265;40;20375;-69
2021/08/01 09:22:09;;;;;;;4.47;3.78;;;;;;;21.33;51.57;98347.16;3580151;40;20049;-69
2021/08/01 09:24:39;;;;;;;4.00;2.92;;;;;;;21.21;51.24;98344.72;3571180;40;20048;-69
2021/08/01 09:27:07;;;;;;;4.50;2.53;;;;;;;21.12;50.52;98349.06;3570929;40;20029;-69
2021/08/01 09:29:49;;;;;;;8.25;3.05;;;;;;;21.41;50.12;98342.00;3570321;40;20080;-69
2021/08/01 09:32:17;;;;;;;2.80;2.10;;;;;;;21.51;49.16;98341.16;3570832;40;20057;-68
2021/08/01 09:34:46;;;;;;;3.28;1.92;;;;;;;21.43;49.08;98341.72;3570642;40;20375;-68
2021/08/01 09:37:14;;;;;;;3.97;2.80;;;;;;;21.58;48.77;98330.91;3570314;40;20480;-69
2021/08/01 09:39:44;;;;;;;2.35;1.83;;;;;;;21.59;48.66;98337.09;3579330;40;20045;-69
2021/08/01 09:42:12;;;;;;;3.80;2.55;;;;;;;21.72;48.43;98337.31;3570109;40;20080;-69
2021/08/01 09:44:41;;;;;;;2.70;1.90;;;;;;;21.81;47.51;98339.44;3570538;40;20061;-69
2021/08/01 09:47:22;;;;;;;2.45;1.70;;;;;;;21.92;46.73;98344.50;3580453;40;20346;-67
2021/08/01 09:50:05;;;;;;;3.83;1.85;;;;;;;21.86;46.22;98345.59;3571845;40;20061;-69
2021/08/01 09:52:33;;;;;;;3.70;2.28;;;;;;;21.89;46.25;98330.78;3572814;40;20436;-70
2021/08/01 09:55:03;;;;;;;2.65;1.88;;;;;;;21.92;46.40;98328.34;3573160;40;20056;-69
2021/08/01 09:57:31;;;;;;;3.70;1.85;;;;;;;22.07;46.15;98329.31;3571554;40;20029;-68
2021/08/01 10:00:08;;;;;;;5.00;2.28;;;;;;;22.01;46.35;98320.47;3570234;40;20068;-69
2021/08/01 10:02:37;;;;;;;3.20;2.22;;;;;;;21.83;47.26;98324.59;3570254;40;20106;-68
2021/08/01 10:05:17;;;;;;;3.08;1.90;;;;;;;21.49;48.09;98313.75;3579275;40;20048;-68
2021/08/01 10:07:50;;;;;;;4.35;2.53;;;;;;;21.55;48.75;98317.22;3570158;40;20027;-69
2021/08/01 10:10:21;;;;;;;4.50;2.10;;;;;;;21.73;48.31;98322.78;3579488;40;20033;-69
2021/08/01 10:12:52;;;;;;;3.38;3.00;;;;;;;22.07;47.64;98322.03;3579359;40;20032;-68
2021/08/01 10:15:21;;;;;;;2.90;1.95;;;;;;;22.37;46.02;98320.25;3579003;40;20025;-69
2021/08/01 10:17:49;;;;;;;2.63;1.40;;;;;;;22.37;45.03;98321.06;3579056;40;20126;-70
2021/08/01 10:20:16;;;;;;;2.20;1.75;;;;;;;22.56;45.09;98305.00;3579005;40;20339;-69
2021/08/01 10:22:46;;;;;;;3.15;1.73;;;;;;;22.65;44.93;98311.38;3579547;40;20055;-69
2021/08/01 10:25:21;;;;;;;3.15;2.40;;;;;;;22.63;44.47;98300.13;3578955;40;20052;-69
2021/08/01 10:27:53;;;;;;;2.55;1.92;;;;;;;22.53;44.96;98302.88;3578954;40;20063;-69
2021/08/01 10:30:27;;;;;;;2.92;2.17;;;;;;;22.62;45.07;98303.09;3580169;40;20102;-69
2021/08/01 10:33:07;;;;;;;3.70;2.08;;;;;;;22.47;45.53;98302.13;3579121;40;20048;-68
2021/08/01 10:35:38;;;;;;;4.93;1.90;;;;;;;22.37;45.71;98298.69;3580305;40;20083;-70
2021/08/01 10:38:11;;;;;;;2.67;1.70;;;;;;;22.24;44.51;98298.25;3570083;40;20036;-70
2021/08/01 10:40:41;;;;;;;3.55;2.00;;;;;;;22.33;44.30;98292.28;3579080;40;20081;-69
2021/08/01 10:43:11;;;;;;;2.65;2.00;;;;;;;22.31;43.92;98271.03;3578760;40;20345;-69
2021/08/01 10:45:43;;;;;;;3.50;2.10;;;;;;;22.33;44.04;98285.03;3569730;40;20128;-69
2021/08/01 10:48:12;;;;;;;3.35;1.55;;;;;;;22.27;44.02;98285.34;3578947;40;20053;-69
2021/08/01 10:50:42;;;;;;;2.33;2.00;;;;;;;22.20;44.51;98288.34;3578954;40;20048;-69
2021/08/01 10:53:24;;;;;;;4.55;2.92;;;;;;;22.47;44.48;98288.66;3569779;40;20037;-69
2021/08/01 10:56:14;;;;;;;3.50;2.88;;;;;;;22.74;44.27;98285.47;3579600;40;20289;-69
2021/08/01 10:58:41;;;;;;;3.88;2.65;;;;;;;22.85;43.55;98278.06;3579732;40;20130;-69
2021/08/01 11:01:10;;;;;;;3.85;2.33;;;;;;;22.82;43.60;98275.13;3580109;40;20362;-69
2021/08/01 11:03:40;;;;;;;3.45;2.70;;;;;;;22.81;43.70;98277.03;3571271;40;20052;-68
2021/08/01 11:06:44;;;;;;;4.78;3.40;;;;;;;22.68;43.83;98275.00;3579310;40;20460;-70
2021/08/01 11:09:13;;;;;;;5.85;4.22;;;;;;;22.46;44.13;98280.88;3569623;40;20056;-69
2021/08/01 11:11:44;;;;;;;4.65;3.03;;;;;;;22.37;44.43;98266.38;3569671;40;20053;-69
2021/08/01 11:14:46;;;;;;;3.78;2.75;;;;;;;22.46;44.54;98283.56;3569794;40;20057;-69
2021/08/01 11:17:14;;;;;;;4.13;2.50;;;;;;;22.48;44.38;98274.09;3569702;40;20402;-69
2021/08/01 11:19:45;;;;;;;4.55;2.83;;;;;;;22.70;43.80;98268.25;3578939;40;20076;-68
2021/08/01 11:22:46;;;;;;;3.47;2.78;;;;;;;23.06;43.53;98264.41;3578977;40;20334;-68
2021/08/01 11:25:22;;;;;;;3.40;3.10;;;;;;;23.39;42.09;98266.19;3579151;40;20064;-69
2021/08/01 11:28:21;;;;;;;3.05;2.08;;;;;;;23.88;41.41;98248.81;3578800;40;20059;-70
2021/08/01 11:31:22;;;;;;;5.38;2.58;;;;;;;24.20;40.53;98250.72;3578786;40;20037;-70
2021/08/01 11:33:53;;;;;;;3.45;2.55;;;;;;;23.88;40.42;98254.22;3537469;40;20059;-69
2021/08/01 11:36:26;;;;;;;3.63;1.85;;;;;;;23.87;40.44;98244.47;3537172;40;20062;-69
2021/08/01 11:39:07;;;;;;;2.50;1.63;;;;;;;23.57;39.95;98253.78;3549414;40;20224;-69
2021/08/01 11:41:39;;;;;;;5.38;2.17;;;;;;;23.45;40.14;98239.94;3569432;40;20055;-69
2021/08/01 11:44:12;;;;;;;3.15;1.98;;;;;;;23.21;40.92;98248.06;3569383;40;20287;-69
2021/08/01 11:47:00;;;;;;;2.28;1.25;;;;;;;23.10;40.76;98243.88;3579227;40;20041;-70
2021/08/01 11:49:30;;;;;;;1.67;1.52;;;;;;;23.11;40.87;98249.00;3578338;40;20056;-70
2021/08/01 11:51:59;;;;;;;4.70;2.45;;;;;;;23.06;41.00;98248.22;3569360;40;20052;-69